EWG4362 LOWS-LIEO
Flight info
| Callsign | EWG4362 |
|---|---|
| Flight time | 1h 25m |
| Altitude | 35000 |
| Route | DETSA DCT TINTO/N0397F190 Q710 GITRI |
| Aircraft | B738/M-SDE2E3FGHIRWXY/LB1 |
Departure
| Time | 2026-05-08 19:07 |
|---|---|
| Airport | Salzburg Airport (LOWS) |
Arrival
| Time | 2026-05-08 20:33 |
|---|---|
| Airport | Olbia Costa Smeralda Airport (LIEO) |
| Time | Latitude | Longitude | Altitude | Speed | Heading |
|---|---|---|---|---|---|
| 2026-05-08 18:30 | 47.79167 | 12.99899 | 1421 ft | 0 kts | 282° |
| 2026-05-08 18:57 | 47.79167 | 12.99900 | 1413 ft | 2 kts | 282° |
| 2026-05-08 18:57 | 47.79163 | 12.99937 | 1428 ft | 4 kts | 270° |
| 2026-05-08 18:58 | 47.79166 | 12.99976 | 1421 ft | 4 kts | 248° |
| 2026-05-08 18:58 | 47.79179 | 13.00004 | 1421 ft | 4 kts | 193° |
| 2026-05-08 18:58 | 47.79190 | 13.00005 | 1421 ft | 0 kts | 157° |
| 2026-05-08 19:01 | 47.79189 | 13.00006 | 1421 ft | 1 kts | 157° |
| 2026-05-08 19:01 | 47.79177 | 13.00014 | 1421 ft | 4 kts | 154° |
| 2026-05-08 19:01 | 47.79143 | 13.00040 | 1421 ft | 7 kts | 153° |
| 2026-05-08 19:02 | 47.79099 | 13.00074 | 1421 ft | 8 kts | 155° |
| 2026-05-08 19:02 | 47.79043 | 13.00104 | 1421 ft | 10 kts | 160° |
| 2026-05-08 19:02 | 47.78984 | 13.00142 | 1421 ft | 9 kts | 148° |
| 2026-05-08 19:02 | 47.78958 | 13.00224 | 1421 ft | 9 kts | 98° |
| 2026-05-08 19:03 | 47.78952 | 13.00318 | 1421 ft | 10 kts | 101° |
| 2026-05-08 19:03 | 47.78900 | 13.00401 | 1418 ft | 13 kts | 153° |
| 2026-05-08 19:03 | 47.78814 | 13.00457 | 1419 ft | 14 kts | 157° |
| 2026-05-08 19:03 | 47.78721 | 13.00519 | 1419 ft | 15 kts | 159° |
| 2026-05-08 19:04 | 47.78627 | 13.00573 | 1420 ft | 14 kts | 157° |
| 2026-05-08 19:04 | 47.78533 | 13.00633 | 1421 ft | 15 kts | 156° |
| 2026-05-08 19:04 | 47.78429 | 13.00699 | 1420 ft | 17 kts | 156° |
| 2026-05-08 19:04 | 47.78326 | 13.00763 | 1420 ft | 16 kts | 157° |
| 2026-05-08 19:05 | 47.78242 | 13.00826 | 1420 ft | 14 kts | 148° |
| 2026-05-08 19:05 | 47.78188 | 13.00938 | 1417 ft | 10 kts | 98° |
| 2026-05-08 19:05 | 47.78189 | 13.00962 | 1419 ft | 3 kts | 78° |
| 2026-05-08 19:05 | 47.78203 | 13.01014 | 1420 ft | 7 kts | 59° |
| 2026-05-08 19:06 | 47.78237 | 13.01062 | 1416 ft | 7 kts | 17° |
| 2026-05-08 19:06 | 47.78287 | 13.01050 | 1420 ft | 8 kts | 343° |
| 2026-05-08 19:06 | 47.78344 | 13.01019 | 1420 ft | 10 kts | 336° |
| 2026-05-08 19:06 | 47.78414 | 13.00973 | 1419 ft | 12 kts | 336° |
| 2026-05-08 19:07 | 47.78599 | 13.00853 | 1421 ft | 66 kts | 336° |
| 2026-05-08 19:07 | 47.79280 | 13.00421 | 1421 ft | 144 kts | 336° |
| 2026-05-08 19:07 | 47.80367 | 12.99757 | 1774 ft | 184 kts | 338° |
| 2026-05-08 19:07 | 47.81635 | 12.98930 | 2435 ft | 210 kts | 337° |
| 2026-05-08 19:08 | 47.82954 | 12.97883 | 3227 ft | 223 kts | 324° |
| 2026-05-08 19:08 | 47.84059 | 12.96098 | 3622 ft | 247 kts | 304° |
| 2026-05-08 19:08 | 47.84831 | 12.93789 | 4343 ft | 254 kts | 293° |
| 2026-05-08 19:08 | 47.85523 | 12.91248 | 4913 ft | 271 kts | 293° |
| 2026-05-08 19:09 | 47.86299 | 12.88656 | 5763 ft | 278 kts | 296° |
| 2026-05-08 19:09 | 47.87184 | 12.86060 | 6655 ft | 282 kts | 297° |
| 2026-05-08 19:09 | 47.88121 | 12.83520 | 7688 ft | 278 kts | 298° |
| 2026-05-08 19:09 | 47.89070 | 12.81020 | 8673 ft | 278 kts | 299° |
| 2026-05-08 19:10 | 47.90035 | 12.78511 | 9625 ft | 279 kts | 297° |
| 2026-05-08 19:10 | 47.90630 | 12.75773 | 10373 ft | 284 kts | 273° |
| 2026-05-08 19:10 | 47.90308 | 12.72781 | 10635 ft | 308 kts | 245° |
| 2026-05-08 19:10 | 47.89035 | 12.70072 | 10858 ft | 332 kts | 230° |
| 2026-05-08 19:11 | 47.87370 | 12.67591 | 11023 ft | 356 kts | 216° |
| 2026-05-08 19:11 | 47.85046 | 12.66158 | 11544 ft | 369 kts | 194° |
| 2026-05-08 19:11 | 47.82535 | 12.65288 | 12274 ft | 372 kts | 195° |
| 2026-05-08 19:11 | 47.80002 | 12.64388 | 13022 ft | 376 kts | 195° |
| 2026-05-08 19:12 | 47.77444 | 12.63469 | 13777 ft | 379 kts | 195° |
| 2026-05-08 19:12 | 47.74864 | 12.62533 | 14404 ft | 383 kts | 195° |
| 2026-05-08 19:12 | 47.72264 | 12.61580 | 15042 ft | 387 kts | 195° |
| 2026-05-08 19:12 | 47.69639 | 12.60615 | 15696 ft | 390 kts | 195° |
| 2026-05-08 19:13 | 47.66992 | 12.59639 | 16329 ft | 394 kts | 195° |
| 2026-05-08 19:13 | 47.64317 | 12.58652 | 16944 ft | 398 kts | 195° |
| 2026-05-08 19:13 | 47.61620 | 12.57656 | 17541 ft | 402 kts | 195° |
| 2026-05-08 19:13 | 47.58892 | 12.56649 | 18159 ft | 406 kts | 195° |
| 2026-05-08 19:14 | 47.57070 | 12.55977 | 18527 ft | 408 kts | 195° |
| 2026-05-08 19:14 | 47.54300 | 12.54956 | 19086 ft | 411 kts | 195° |
| 2026-05-08 19:14 | 47.50613 | 12.53599 | 19818 ft | 414 kts | 195° |
| 2026-05-08 19:14 | 47.47804 | 12.52568 | 20359 ft | 417 kts | 195° |
| 2026-05-08 19:15 | 47.44981 | 12.51532 | 20889 ft | 419 kts | 195° |
| 2026-05-08 19:15 | 47.42139 | 12.50490 | 21409 ft | 422 kts | 195° |
| 2026-05-08 19:15 | 47.39283 | 12.49443 | 21917 ft | 425 kts | 195° |
| 2026-05-08 19:15 | 47.36401 | 12.48389 | 22420 ft | 427 kts | 195° |
| 2026-05-08 19:16 | 47.34452 | 12.47677 | 22741 ft | 429 kts | 195° |
| 2026-05-08 19:16 | 47.31582 | 12.46629 | 23149 ft | 433 kts | 195° |
| 2026-05-08 19:16 | 47.28640 | 12.45556 | 23499 ft | 438 kts | 195° |
| 2026-05-08 19:16 | 47.25675 | 12.44475 | 23925 ft | 440 kts | 195° |
| 2026-05-08 19:17 | 47.22700 | 12.43394 | 24401 ft | 440 kts | 195° |
| 2026-05-08 19:17 | 47.19733 | 12.42316 | 24865 ft | 440 kts | 195° |
| 2026-05-08 19:17 | 47.16757 | 12.41236 | 25228 ft | 442 kts | 195° |
| 2026-05-08 19:17 | 47.13762 | 12.40149 | 25578 ft | 444 kts | 195° |
| 2026-05-08 19:18 | 47.10763 | 12.39063 | 25968 ft | 445 kts | 196° |
| 2026-05-08 19:18 | 47.07754 | 12.37974 | 26330 ft | 446 kts | 195° |
| 2026-05-08 19:18 | 47.04732 | 12.36883 | 26689 ft | 447 kts | 195° |
| 2026-05-08 19:18 | 47.01700 | 12.35789 | 27038 ft | 449 kts | 196° |
| 2026-05-08 19:19 | 46.98661 | 12.34693 | 27385 ft | 450 kts | 195° |
| 2026-05-08 19:19 | 46.95617 | 12.33597 | 27750 ft | 451 kts | 196° |
| 2026-05-08 19:19 | 46.92566 | 12.32500 | 28150 ft | 451 kts | 196° |
| 2026-05-08 19:19 | 46.89536 | 12.31413 | 28747 ft | 446 kts | 196° |
| 2026-05-08 19:20 | 46.86541 | 12.30338 | 29380 ft | 441 kts | 196° |
| 2026-05-08 19:20 | 46.84574 | 12.29632 | 29742 ft | 439 kts | 196° |
| 2026-05-08 19:20 | 46.80612 | 12.28214 | 30341 ft | 437 kts | 196° |
| 2026-05-08 19:20 | 46.77639 | 12.27282 | 30691 ft | 438 kts | 193° |
| 2026-05-08 19:21 | 46.74631 | 12.26499 | 30987 ft | 439 kts | 192° |
| 2026-05-08 19:21 | 46.71646 | 12.25788 | 31225 ft | 441 kts | 192° |
| 2026-05-08 19:21 | 46.68608 | 12.25080 | 31408 ft | 444 kts | 192° |
| 2026-05-08 19:21 | 46.65560 | 12.24367 | 31761 ft | 443 kts | 192° |
| 2026-05-08 19:22 | 46.62533 | 12.23647 | 32222 ft | 439 kts | 192° |
| 2026-05-08 19:22 | 46.59525 | 12.22921 | 32621 ft | 437 kts | 192° |
| 2026-05-08 19:22 | 46.56528 | 12.22189 | 32847 ft | 437 kts | 192° |
| 2026-05-08 19:22 | 46.53526 | 12.21461 | 33172 ft | 437 kts | 190° |
| 2026-05-08 19:23 | 46.50519 | 12.20887 | 33572 ft | 435 kts | 192° |
| 2026-05-08 19:23 | 46.47520 | 12.20149 | 33674 ft | 439 kts | 193° |
| 2026-05-08 19:23 | 46.44519 | 12.19351 | 34018 ft | 437 kts | 193° |
| 2026-05-08 19:23 | 46.41533 | 12.18560 | 34308 ft | 436 kts | 193° |
| 2026-05-08 19:24 | 46.38539 | 12.17783 | 34476 ft | 438 kts | 193° |
| 2026-05-08 19:24 | 46.35535 | 12.17020 | 34667 ft | 439 kts | 193° |
| 2026-05-08 19:24 | 46.32516 | 12.16264 | 34888 ft | 439 kts | 193° |
| 2026-05-08 19:24 | 46.29502 | 12.15520 | 35050 ft | 441 kts | 193° |
| 2026-05-08 19:25 | 46.26452 | 12.14770 | 35036 ft | 446 kts | 193° |
| 2026-05-08 19:25 | 46.20321 | 12.13271 | 35043 ft | 446 kts | 193° |
| 2026-05-08 19:26 | 46.14235 | 12.11851 | 35028 ft | 440 kts | 193° |
| 2026-05-08 19:26 | 46.08208 | 12.10367 | 35033 ft | 439 kts | 193° |
| 2026-05-08 19:27 | 46.02187 | 12.08873 | 35050 ft | 439 kts | 193° |
| 2026-05-08 19:27 | 45.96193 | 12.07402 | 35037 ft | 442 kts | 193° |
| 2026-05-08 19:28 | 45.90105 | 12.05926 | 35032 ft | 445 kts | 193° |
| 2026-05-08 19:28 | 45.83990 | 12.04450 | 35030 ft | 447 kts | 193° |
| 2026-05-08 19:29 | 45.77854 | 12.02973 | 35031 ft | 448 kts | 193° |
| 2026-05-08 19:29 | 45.71700 | 12.01495 | 35014 ft | 449 kts | 194° |
| 2026-05-08 19:30 | 45.65542 | 12.00018 | 35022 ft | 449 kts | 194° |
| 2026-05-08 19:30 | 45.59372 | 11.98541 | 35020 ft | 449 kts | 194° |
| 2026-05-08 19:31 | 45.53199 | 11.97067 | 35016 ft | 450 kts | 194° |
| 2026-05-08 19:31 | 45.47025 | 11.95597 | 35029 ft | 450 kts | 194° |
| 2026-05-08 19:32 | 45.40846 | 11.94127 | 35035 ft | 450 kts | 194° |
| 2026-05-08 19:32 | 45.34662 | 11.92660 | 35035 ft | 451 kts | 194° |
| 2026-05-08 19:33 | 45.28476 | 11.91197 | 35034 ft | 451 kts | 195° |
| 2026-05-08 19:33 | 45.22278 | 11.89732 | 35042 ft | 451 kts | 195° |
| 2026-05-08 19:34 | 45.16080 | 11.88271 | 35039 ft | 452 kts | 195° |
| 2026-05-08 19:34 | 45.09870 | 11.86812 | 35031 ft | 452 kts | 195° |
| 2026-05-08 19:35 | 45.03663 | 11.85356 | 35040 ft | 453 kts | 195° |
| 2026-05-08 19:35 | 44.97486 | 11.83909 | 35036 ft | 453 kts | 195° |
| 2026-05-08 19:36 | 44.91262 | 11.82455 | 35030 ft | 454 kts | 196° |
| 2026-05-08 19:36 | 44.85025 | 11.81002 | 35040 ft | 454 kts | 196° |
| 2026-05-08 19:37 | 44.78774 | 11.79548 | 35037 ft | 455 kts | 196° |
| 2026-05-08 19:37 | 44.72526 | 11.78098 | 35031 ft | 455 kts | 196° |
| 2026-05-08 19:38 | 44.66272 | 11.76650 | 35039 ft | 455 kts | 196° |
| 2026-05-08 19:38 | 44.60016 | 11.75205 | 35039 ft | 456 kts | 196° |
| 2026-05-08 19:39 | 44.53762 | 11.73764 | 35031 ft | 455 kts | 197° |
| 2026-05-08 19:39 | 44.47559 | 11.72337 | 35037 ft | 455 kts | 197° |
| 2026-05-08 19:40 | 44.41319 | 11.70905 | 35039 ft | 454 kts | 197° |
| 2026-05-08 19:40 | 44.35086 | 11.69478 | 35032 ft | 453 kts | 197° |
| 2026-05-08 19:41 | 44.28867 | 11.68056 | 35048 ft | 452 kts | 197° |
| 2026-05-08 19:41 | 44.22664 | 11.66641 | 35043 ft | 452 kts | 196° |
| 2026-05-08 19:42 | 44.16468 | 11.65222 | 35037 ft | 450 kts | 196° |
| 2026-05-08 19:42 | 44.10285 | 11.63822 | 35036 ft | 449 kts | 196° |
| 2026-05-08 19:43 | 44.04121 | 11.62429 | 35045 ft | 448 kts | 196° |
| 2026-05-08 19:43 | 43.98001 | 11.61046 | 35033 ft | 448 kts | 196° |
| 2026-05-08 19:44 | 43.91837 | 11.59800 | 35058 ft | 454 kts | 188° |
| 2026-05-08 19:44 | 43.85655 | 11.58694 | 35032 ft | 444 kts | 200° |
| 2026-05-08 19:45 | 43.79593 | 11.56908 | 35020 ft | 447 kts | 197° |
| 2026-05-08 19:45 | 43.73453 | 11.55461 | 35033 ft | 448 kts | 195° |
| 2026-05-08 19:46 | 43.67288 | 11.54110 | 35034 ft | 449 kts | 195° |
| 2026-05-08 19:46 | 43.58033 | 11.52074 | 35031 ft | 449 kts | 195° |
| 2026-05-08 19:47 | 43.51871 | 11.50707 | 35029 ft | 448 kts | 195° |
| 2026-05-08 19:47 | 43.45722 | 11.49340 | 35022 ft | 448 kts | 195° |
| 2026-05-08 19:48 | 43.39568 | 11.47984 | 35023 ft | 447 kts | 195° |
| 2026-05-08 19:48 | 43.33419 | 11.46621 | 35022 ft | 447 kts | 195° |
| 2026-05-08 19:49 | 43.27285 | 11.45260 | 35032 ft | 447 kts | 195° |
| 2026-05-08 19:49 | 43.21154 | 11.43908 | 35018 ft | 446 kts | 195° |
| 2026-05-08 19:50 | 43.15034 | 11.42564 | 35027 ft | 445 kts | 195° |
| 2026-05-08 19:50 | 43.08970 | 11.41232 | 35017 ft | 444 kts | 195° |
| 2026-05-08 19:51 | 43.02869 | 11.39894 | 35008 ft | 443 kts | 195° |
| 2026-05-08 19:51 | 42.96781 | 11.38565 | 35026 ft | 443 kts | 195° |
| 2026-05-08 19:52 | 42.90696 | 11.37238 | 35023 ft | 442 kts | 195° |
| 2026-05-08 19:52 | 42.84612 | 11.35912 | 35006 ft | 443 kts | 194° |
| 2026-05-08 19:53 | 42.78532 | 11.34590 | 35016 ft | 443 kts | 194° |
| 2026-05-08 19:53 | 42.72433 | 11.33268 | 35015 ft | 443 kts | 194° |
| 2026-05-08 19:54 | 42.66341 | 11.31949 | 35017 ft | 444 kts | 194° |
| 2026-05-08 19:54 | 42.60239 | 11.30631 | 35032 ft | 444 kts | 194° |
| 2026-05-08 19:55 | 42.54168 | 11.29322 | 35027 ft | 445 kts | 194° |
| 2026-05-08 19:55 | 42.48045 | 11.28006 | 35018 ft | 445 kts | 194° |
| 2026-05-08 19:56 | 42.41937 | 11.26697 | 35015 ft | 443 kts | 194° |
| 2026-05-08 19:56 | 42.35865 | 11.25395 | 35022 ft | 441 kts | 194° |
| 2026-05-08 19:57 | 42.29821 | 11.24102 | 35025 ft | 439 kts | 194° |
| 2026-05-08 19:57 | 42.23799 | 11.22817 | 35027 ft | 437 kts | 194° |
| 2026-05-08 19:58 | 42.17837 | 11.21546 | 35030 ft | 436 kts | 194° |
| 2026-05-08 19:58 | 42.11849 | 11.20272 | 35030 ft | 435 kts | 194° |
| 2026-05-08 19:59 | 42.05868 | 11.19002 | 35012 ft | 435 kts | 194° |
| 2026-05-08 19:59 | 41.99902 | 11.17739 | 35025 ft | 434 kts | 194° |
| 2026-05-08 20:00 | 41.93937 | 11.16477 | 35027 ft | 433 kts | 194° |
| 2026-05-08 20:00 | 41.87977 | 11.15217 | 35037 ft | 433 kts | 194° |
| 2026-05-08 20:01 | 41.82020 | 11.13964 | 35032 ft | 433 kts | 194° |
| 2026-05-08 20:01 | 41.76059 | 11.12711 | 35034 ft | 434 kts | 194° |
| 2026-05-08 20:02 | 41.70084 | 11.11456 | 35035 ft | 436 kts | 194° |
| 2026-05-08 20:02 | 41.68095 | 11.11038 | 34866 ft | 439 kts | 194° |
| 2026-05-08 20:02 | 41.65058 | 11.10401 | 34465 ft | 441 kts | 194° |
| 2026-05-08 20:03 | 41.62051 | 11.09774 | 34049 ft | 434 kts | 193° |
| 2026-05-08 20:03 | 41.59086 | 11.09157 | 33653 ft | 426 kts | 194° |
| 2026-05-08 20:03 | 41.55231 | 11.08354 | 32748 ft | 424 kts | 194° |
| 2026-05-08 20:03 | 41.53256 | 11.07939 | 32244 ft | 426 kts | 193° |
| 2026-05-08 20:04 | 41.50386 | 11.07089 | 31674 ft | 417 kts | 205° |
| 2026-05-08 20:04 | 41.47847 | 11.05386 | 31398 ft | 402 kts | 217° |
| 2026-05-08 20:04 | 41.45655 | 11.03157 | 31009 ft | 393 kts | 226° |
| 2026-05-08 20:04 | 41.43884 | 11.00434 | 30545 ft | 387 kts | 234° |
| 2026-05-08 20:05 | 41.42235 | 10.97625 | 30095 ft | 384 kts | 234° |
| 2026-05-08 20:05 | 41.40616 | 10.94868 | 29543 ft | 382 kts | 234° |
| 2026-05-08 20:05 | 41.38983 | 10.92101 | 28997 ft | 379 kts | 234° |
| 2026-05-08 20:05 | 41.37349 | 10.89350 | 28457 ft | 377 kts | 234° |
| 2026-05-08 20:06 | 41.35724 | 10.86627 | 27942 ft | 375 kts | 234° |
| 2026-05-08 20:06 | 41.34108 | 10.83930 | 27444 ft | 372 kts | 234° |
| 2026-05-08 20:06 | 41.32495 | 10.81243 | 26947 ft | 370 kts | 234° |
| 2026-05-08 20:06 | 41.30892 | 10.78577 | 26480 ft | 368 kts | 234° |
| 2026-05-08 20:07 | 41.29320 | 10.75966 | 26296 ft | 358 kts | 234° |
| 2026-05-08 20:07 | 41.27754 | 10.73363 | 25659 ft | 365 kts | 231° |
| 2026-05-08 20:07 | 41.26134 | 10.70673 | 24753 ft | 374 kts | 234° |
| 2026-05-08 20:07 | 41.24530 | 10.68018 | 24647 ft | 362 kts | 234° |
| 2026-05-08 20:08 | 41.22969 | 10.65433 | 24323 ft | 356 kts | 234° |
| 2026-05-08 20:08 | 41.21420 | 10.62866 | 23871 ft | 355 kts | 234° |
| 2026-05-08 20:08 | 41.19869 | 10.60301 | 23153 ft | 360 kts | 234° |
| 2026-05-08 20:08 | 41.18293 | 10.57696 | 22485 ft | 362 kts | 234° |
| 2026-05-08 20:09 | 41.16713 | 10.55101 | 22018 ft | 359 kts | 234° |
| 2026-05-08 20:09 | 41.15152 | 10.52543 | 21593 ft | 355 kts | 234° |
| 2026-05-08 20:09 | 41.13607 | 10.50013 | 21152 ft | 351 kts | 234° |
| 2026-05-08 20:09 | 41.12075 | 10.47504 | 20690 ft | 349 kts | 234° |
| 2026-05-08 20:10 | 41.10557 | 10.45017 | 20253 ft | 346 kts | 235° |
| 2026-05-08 20:10 | 41.09066 | 10.42577 | 19835 ft | 343 kts | 235° |
| 2026-05-08 20:10 | 41.07567 | 10.40123 | 19340 ft | 342 kts | 234° |
| 2026-05-08 20:10 | 41.06071 | 10.37679 | 18882 ft | 341 kts | 234° |
| 2026-05-08 20:11 | 41.04581 | 10.35247 | 18473 ft | 338 kts | 234° |
| 2026-05-08 20:11 | 41.03111 | 10.32826 | 18022 ft | 336 kts | 234° |
| 2026-05-08 20:11 | 41.01658 | 10.30420 | 17536 ft | 334 kts | 234° |
| 2026-05-08 20:11 | 41.00209 | 10.28022 | 17047 ft | 333 kts | 234° |
| 2026-05-08 20:12 | 40.98765 | 10.25634 | 16578 ft | 331 kts | 234° |
| 2026-05-08 20:12 | 40.97325 | 10.23256 | 16108 ft | 330 kts | 234° |
| 2026-05-08 20:12 | 40.95892 | 10.20895 | 15659 ft | 329 kts | 234° |
| 2026-05-08 20:12 | 40.94473 | 10.18551 | 15209 ft | 327 kts | 236° |
| 2026-05-08 20:13 | 40.93421 | 10.15907 | 14723 ft | 323 kts | 255° |
| 2026-05-08 20:13 | 40.93079 | 10.13002 | 14309 ft | 319 kts | 271° |
| 2026-05-08 20:13 | 40.93280 | 10.10085 | 13898 ft | 318 kts | 277° |
| 2026-05-08 20:13 | 40.93587 | 10.07187 | 13410 ft | 318 kts | 278° |
| 2026-05-08 20:14 | 40.93904 | 10.04296 | 12910 ft | 318 kts | 278° |
| 2026-05-08 20:14 | 40.94209 | 10.01398 | 12433 ft | 318 kts | 277° |
| 2026-05-08 20:14 | 40.94501 | 9.98507 | 12009 ft | 317 kts | 277° |
| 2026-05-08 20:14 | 40.94784 | 9.95623 | 11772 ft | 318 kts | 277° |
| 2026-05-08 20:15 | 40.95070 | 9.92640 | 11541 ft | 332 kts | 276° |
| 2026-05-08 20:15 | 40.94902 | 9.89598 | 11263 ft | 333 kts | 255° |
| 2026-05-08 20:15 | 40.93945 | 9.86838 | 11024 ft | 328 kts | 238° |
| 2026-05-08 20:15 | 40.92672 | 9.84377 | 10779 ft | 320 kts | 236° |
| 2026-05-08 20:16 | 40.91400 | 9.82007 | 10522 ft | 310 kts | 236° |
| 2026-05-08 20:16 | 40.90183 | 9.79729 | 10263 ft | 297 kts | 236° |
| 2026-05-08 20:16 | 40.89030 | 9.77539 | 10014 ft | 285 kts | 237° |
| 2026-05-08 20:16 | 40.87922 | 9.75420 | 9769 ft | 275 kts | 237° |
| 2026-05-08 20:17 | 40.86855 | 9.73375 | 9492 ft | 266 kts | 237° |
| 2026-05-08 20:17 | 40.85822 | 9.71392 | 9221 ft | 259 kts | 237° |
| 2026-05-08 20:17 | 40.84804 | 9.69440 | 8970 ft | 257 kts | 237° |
| 2026-05-08 20:17 | 40.83790 | 9.67496 | 8713 ft | 257 kts | 236° |
| 2026-05-08 20:18 | 40.82778 | 9.65559 | 8454 ft | 256 kts | 236° |
| 2026-05-08 20:18 | 40.81779 | 9.63647 | 8219 ft | 256 kts | 236° |
| 2026-05-08 20:18 | 40.80766 | 9.61710 | 7973 ft | 256 kts | 236° |
| 2026-05-08 20:18 | 40.79751 | 9.59772 | 7718 ft | 257 kts | 236° |
| 2026-05-08 20:19 | 40.78730 | 9.57820 | 7488 ft | 261 kts | 236° |
| 2026-05-08 20:19 | 40.77690 | 9.55830 | 7258 ft | 266 kts | 236° |
| 2026-05-08 20:19 | 40.76643 | 9.53830 | 7001 ft | 264 kts | 236° |
| 2026-05-08 20:19 | 40.75605 | 9.51848 | 6768 ft | 262 kts | 236° |
| 2026-05-08 20:20 | 40.74571 | 9.49876 | 6526 ft | 260 kts | 236° |
| 2026-05-08 20:20 | 40.73549 | 9.47928 | 6274 ft | 258 kts | 236° |
| 2026-05-08 20:20 | 40.72525 | 9.45979 | 6015 ft | 257 kts | 235° |
| 2026-05-08 20:20 | 40.71512 | 9.44053 | 5759 ft | 255 kts | 235° |
| 2026-05-08 20:21 | 40.70505 | 9.42141 | 5512 ft | 253 kts | 235° |
| 2026-05-08 20:21 | 40.69504 | 9.40240 | 5260 ft | 252 kts | 235° |
| 2026-05-08 20:21 | 40.68511 | 9.38357 | 5086 ft | 247 kts | 235° |
| 2026-05-08 20:21 | 40.67548 | 9.36531 | 5044 ft | 241 kts | 235° |
| 2026-05-08 20:22 | 40.66597 | 9.34730 | 5046 ft | 239 kts | 235° |
| 2026-05-08 20:22 | 40.65650 | 9.32939 | 5035 ft | 238 kts | 235° |
| 2026-05-08 20:22 | 40.64701 | 9.31141 | 5048 ft | 240 kts | 235° |
| 2026-05-08 20:22 | 40.63743 | 9.29324 | 5047 ft | 241 kts | 235° |
| 2026-05-08 20:23 | 40.62795 | 9.27527 | 5030 ft | 235 kts | 235° |
| 2026-05-08 20:23 | 40.61877 | 9.25787 | 5022 ft | 229 kts | 236° |
| 2026-05-08 20:23 | 40.61297 | 9.23909 | 5029 ft | 224 kts | 266° |
| 2026-05-08 20:23 | 40.61582 | 9.21923 | 5041 ft | 225 kts | 300° |
| 2026-05-08 20:24 | 40.62496 | 9.20231 | 5049 ft | 230 kts | 309° |
| 2026-05-08 20:24 | 40.63509 | 9.18597 | 5042 ft | 230 kts | 310° |
| 2026-05-08 20:24 | 40.64525 | 9.16976 | 5030 ft | 229 kts | 310° |
| 2026-05-08 20:24 | 40.65582 | 9.15426 | 5019 ft | 226 kts | 323° |
| 2026-05-08 20:25 | 40.67001 | 9.14667 | 5031 ft | 220 kts | 358° |
| 2026-05-08 20:25 | 40.68486 | 9.14998 | 5051 ft | 217 kts | 19° |
| 2026-05-08 20:25 | 40.69919 | 9.15672 | 5047 ft | 219 kts | 20° |
| 2026-05-08 20:25 | 40.71270 | 9.16576 | 5033 ft | 219 kts | 43° |
| 2026-05-08 20:26 | 40.72202 | 9.18127 | 5043 ft | 215 kts | 54° |
| 2026-05-08 20:26 | 40.73083 | 9.19714 | 5051 ft | 215 kts | 54° |
| 2026-05-08 20:26 | 40.73960 | 9.21332 | 5058 ft | 219 kts | 55° |
| 2026-05-08 20:26 | 40.74833 | 9.22982 | 5047 ft | 217 kts | 55° |
| 2026-05-08 20:27 | 40.75659 | 9.24561 | 5017 ft | 200 kts | 55° |
| 2026-05-08 20:27 | 40.76411 | 9.26001 | 5009 ft | 182 kts | 56° |
| 2026-05-08 20:27 | 40.77108 | 9.27339 | 4976 ft | 177 kts | 56° |
| 2026-05-08 20:27 | 40.77817 | 9.28698 | 4709 ft | 178 kts | 56° |
| 2026-05-08 20:28 | 40.78501 | 9.30013 | 4458 ft | 167 kts | 56° |
| 2026-05-08 20:28 | 40.79145 | 9.31247 | 4165 ft | 158 kts | 55° |
| 2026-05-08 20:28 | 40.79749 | 9.32401 | 3919 ft | 149 kts | 55° |
| 2026-05-08 20:28 | 40.80330 | 9.33515 | 3711 ft | 147 kts | 56° |
| 2026-05-08 20:29 | 40.80908 | 9.34624 | 3484 ft | 150 kts | 56° |
| 2026-05-08 20:29 | 40.81502 | 9.35762 | 3253 ft | 151 kts | 56° |
| 2026-05-08 20:29 | 40.82092 | 9.36892 | 3028 ft | 148 kts | 56° |
| 2026-05-08 20:29 | 40.82680 | 9.38019 | 2762 ft | 149 kts | 56° |
| 2026-05-08 20:30 | 40.83268 | 9.39146 | 2516 ft | 149 kts | 56° |
| 2026-05-08 20:30 | 40.83856 | 9.40271 | 2291 ft | 149 kts | 56° |
| 2026-05-08 20:30 | 40.84444 | 9.41398 | 2058 ft | 149 kts | 56° |
| 2026-05-08 20:30 | 40.85036 | 9.42530 | 1826 ft | 150 kts | 55° |
| 2026-05-08 20:31 | 40.85630 | 9.43665 | 1595 ft | 151 kts | 55° |
| 2026-05-08 20:31 | 40.86223 | 9.44799 | 1369 ft | 148 kts | 55° |
| 2026-05-08 20:31 | 40.86819 | 9.45871 | 1106 ft | 145 kts | 52° |
| 2026-05-08 20:31 | 40.87405 | 9.46952 | 821 ft | 144 kts | 57° |
| 2026-05-08 20:32 | 40.87940 | 9.48058 | 597 ft | 143 kts | 57° |
| 2026-05-08 20:32 | 40.88509 | 9.49141 | 356 ft | 143 kts | 56° |
| 2026-05-08 20:32 | 40.89073 | 9.50226 | 153 ft | 142 kts | 56° |
| 2026-05-08 20:32 | 40.89630 | 9.51309 | 44 ft | 143 kts | 53° |
| 2026-05-08 20:33 | 40.90153 | 9.52294 | 32 ft | 103 kts | 54° |
| 2026-05-08 20:33 | 40.90346 | 9.52645 | 29 ft | 17 kts | 52° |
| 2026-05-08 20:33 | 40.90386 | 9.52677 | 29 ft | 3 kts | 5° |
| 2026-05-08 20:33 | 40.90409 | 9.52671 | 29 ft | 4 kts | 329° |
| 2026-05-08 20:34 | 40.90430 | 9.52649 | 29 ft | 4 kts | 314° |
| 2026-05-08 20:34 | 40.90446 | 9.52612 | 30 ft | 5 kts | 293° |
| 2026-05-08 20:34 | 40.90445 | 9.52501 | 29 ft | 7 kts | 256° |
| 2026-05-08 20:35 | 40.90423 | 9.52440 | 30 ft | 8 kts | 239° |
| 2026-05-08 20:35 | 40.90392 | 9.52375 | 31 ft | 9 kts | 236° |
| 2026-05-08 20:35 | 40.90353 | 9.52302 | 32 ft | 10 kts | 234° |
| 2026-05-08 20:35 | 40.90310 | 9.52220 | 32 ft | 11 kts | 236° |
| 2026-05-08 20:36 | 40.90263 | 9.52130 | 33 ft | 12 kts | 235° |
| 2026-05-08 20:36 | 40.90214 | 9.52037 | 33 ft | 11 kts | 235° |
| 2026-05-08 20:36 | 40.90182 | 9.51950 | 34 ft | 11 kts | 256° |
| 2026-05-08 20:36 | 40.90184 | 9.51867 | 34 ft | 8 kts | 287° |
| 2026-05-08 20:37 | 40.90216 | 9.51810 | 34 ft | 8 kts | 314° |
| 2026-05-08 20:37 | 40.90227 | 9.51756 | 35 ft | 5 kts | 285° |
| 2026-05-08 20:37 | 40.90246 | 9.51723 | 35 ft | 1 kts | 319° |
| 2026-05-08 20:37 | 40.90258 | 9.51711 | 35 ft | 1 kts | 321° |
| 2026-05-08 20:38 | 40.90264 | 9.51704 | 35 ft | 1 kts | 321° |
| 2026-05-08 20:38 | 40.90265 | 9.51703 | 35 ft | 0 kts | 321° |